Terminal Aerodrome Forecast
Issued by NWS Mt. Holly, NJ

Home | Current Version | Previous Version | Text Only | Print | Product List | Glossary On
Versions: 1 2 3 4 5 6 7 8 9 10 11 12 13 14 15
000
FTUS41 KPHI 232339
TAFACY
TAF
KACY 232339Z 2400/2424 20010KT P6SM SCT250
     FM240700 20006KT 4SM BR BKN250
     FM240800 20006KT 2SM BR BKN250
     FM240900 20005KT 1 1/2SM BR BKN005
      TEMPO 2409/2413 1/2SM FG OVC003
     FM241300 18006KT 3SM BR BKN008
     FM241500 18011KT 6SM HZ BKN015
     FM242000 17010KT P6SM SCT015=

USA.gov is the U.S. government's official web portal to all federal, state and local government web resources and services.